Time;durP1;ratioP1;P1;durP2;ratioP2;P2;SDS_P1;SDS_P2;PMS_P1;PMS_P2;Temp;Humidity;BMP_temperature;BMP_pressure;BME280_temperature;BME280_humidity;BME280_pressure;Samples;Min_cycle;Max_cycle;Signal;HPM_P1;HPM_P2
2023/05/21 00:03:32;;;;;;;24.58;14.68;;;;;;;16.37;89.78;100635.69;8261343;28;20050;-59
2023/05/21 00:07:33;;;;;;;19.35;13.32;;;;;;;16.40;89.31;100627.16;8261735;28;20084;-60
2023/05/21 00:11:33;;;;;;;24.13;13.82;;;;;;;16.36;89.95;100634.84;8261535;28;20038;-60
2023/05/21 00:15:33;;;;;;;21.58;13.55;;;;;;;16.34;89.80;100628.72;8261135;28;20042;-60
2023/05/21 00:19:34;;;;;;;22.88;13.90;;;;;;;16.22;90.42;100629.28;8261109;28;20065;-61
2023/05/21 00:23:36;;;;;;;22.45;14.02;;;;;;;16.21;90.90;100624.81;8260856;28;20458;-60
2023/05/21 00:27:37;;;;;;;22.63;14.15;;;;;;;16.15;91.34;100615.47;8260698;28;20045;-60
2023/05/21 00:31:37;;;;;;;23.88;15.07;;;;;;;16.14;91.47;100615.66;8261177;28;20038;-60
2023/05/21 00:35:37;;;;;;;26.02;14.85;;;;;;;16.09;91.55;100612.56;8257959;28;20396;-60
2023/05/21 00:39:38;;;;;;;22.45;14.98;;;;;;;15.80;93.95;100613.16;8246286;28;20038;-60
2023/05/21 00:43:40;;;;;;;23.60;15.70;;;;;;;15.38;97.05;100618.78;8257288;28;20044;-60
2023/05/21 00:47:42;;;;;;;28.00;17.25;;;;;;;15.14;99.26;100620.56;8259365;28;20042;-60
2023/05/21 00:51:43;;;;;;;26.25;16.95;;;;;;;15.03;100.00;100612.69;8247972;28;20035;-59
2023/05/21 00:55:45;;;;;;;30.40;17.30;;;;;;;15.01;100.00;100607.41;8259692;28;20350;-59
2023/05/21 00:59:49;;;;;;;31.55;17.90;;;;;;;15.01;100.00;100612.84;8259612;28;20468;-60
2023/05/21 01:03:51;;;;;;;30.27;18.40;;;;;;;14.96;100.00;100612.53;8258786;28;20557;-60
2023/05/21 01:07:51;;;;;;;32.10;18.73;;;;;;;14.88;100.00;100608.94;8243608;28;20433;-59
2023/05/21 01:11:53;;;;;;;28.05;18.00;;;;;;;14.90;100.00;100618.63;8259651;28;20042;-60
2023/05/21 01:15:54;;;;;;;30.38;18.95;;;;;;;14.91;100.00;100606.72;8259777;28;20501;-60
2023/05/21 01:19:57;;;;;;;30.88;18.48;;;;;;;14.81;100.00;100602.44;8259506;28;20476;-60
2023/05/21 01:23:57;;;;;;;30.17;17.92;;;;;;;14.78;100.00;100603.63;8259050;28;20073;-60
2023/05/21 01:27:58;;;;;;;31.98;18.80;;;;;;;14.87;100.00;100601.75;8248210;28;20049;-60
2023/05/21 01:36:42;;;;;;;28.80;17.60;;;;;;;14.99;100.00;100595.00;8412778;27;20465;-59
2023/05/21 01:41:02;;;;;;;30.85;17.95;;;;;;;14.86;100.00;100589.19;8401742;27;20439;-59
2023/05/21 01:45:06;;;;;;;31.85;18.35;;;;;;;14.72;100.00;100587.09;8401141;27;20428;-59
2023/05/21 01:49:07;;;;;;;32.65;19.45;;;;;;;14.83;100.00;100581.34;8399705;27;20036;-60
2023/05/21 01:53:07;;;;;;;30.30;18.63;;;;;;;14.88;100.00;100584.44;8401071;27;20036;-59
2023/05/21 01:57:08;;;;;;;31.98;18.58;;;;;;;14.92;100.00;100573.06;8401276;27;20491;-60
2023/05/21 02:01:08;;;;;;;30.63;18.13;;;;;;;14.93;100.00;100582.03;8393451;27;20049;-60
2023/05/21 02:05:09;;;;;;;28.77;18.50;;;;;;;14.85;100.00;100582.06;8400975;28;20051;-60
2023/05/21 02:09:09;;;;;;;28.30;17.20;;;;;;;14.93;100.00;100582.91;8401579;27;20040;-59
2023/05/21 02:13:10;;;;;;;29.92;18.08;;;;;;;14.96;100.00;100579.00;8400570;27;20032;-60
2023/05/21 02:17:11;;;;;;;28.38;18.08;;;;;;;14.97;100.00;100581.53;8392102;27;20067;-60
2023/05/21 02:21:12;;;;;;;28.30;18.33;;;;;;;14.77;100.00;100574.72;8377615;27;20040;-60
2023/05/21 02:25:15;;;;;;;27.17;17.35;;;;;;;14.78;100.00;100581.84;8401639;27;20453;-60
2023/05/21 02:29:15;;;;;;;29.02;18.20;;;;;;;14.75;100.00;100576.72;8396031;27;20041;-60
2023/05/21 02:33:16;;;;;;;28.10;17.08;;;;;;;14.87;100.00;100561.78;8382728;28;20052;-60
2023/05/21 02:37:17;;;;;;;25.65;17.08;;;;;;;15.00;100.00;100564.00;8383657;28;20495;-60
2023/05/21 02:41:18;;;;;;;30.48;16.90;;;;;;;14.94;100.00;100565.53;8397484;27;20060;-60
2023/05/21 02:45:19;;;;;;;25.27;15.40;;;;;;;14.99;100.00;100557.75;8390770;27;20041;-60
2023/05/21 02:49:20;;;;;;;27.83;15.88;;;;;;;14.97;100.00;100559.75;8377747;28;20530;-59
2023/05/21 02:53:22;;;;;;;24.52;15.57;;;;;;;14.89;100.00;100557.06;8376931;28;20593;-60
2023/05/21 02:57:22;;;;;;;23.33;15.38;;;;;;;14.68;100.00;100553.94;8364923;28;20552;-60
2023/05/21 03:01:23;;;;;;;29.30;17.23;;;;;;;14.67;100.00;100557.66;8363080;28;20471;-60
2023/05/21 03:05:23;;;;;;;25.20;17.13;;;;;;;14.72;100.00;100555.28;8376816;28;20486;-60
2023/05/21 03:09:24;;;;;;;27.17;16.90;;;;;;;14.76;100.00;100545.75;8377030;28;20469;-60
2023/05/21 03:13:24;;;;;;;25.80;16.92;;;;;;;14.80;100.00;100555.31;8376423;28;20039;-60
2023/05/21 03:17:25;;;;;;;29.80;16.88;;;;;;;14.80;100.00;100547.16;8376497;28;20048;-60
2023/05/21 03:21:28;;;;;;;32.42;18.15;;;;;;;14.79;100.00;100542.72;8376460;28;20032;-60
2023/05/21 03:25:30;;;;;;;31.40;18.13;;;;;;;14.85;100.00;100550.22;8374587;28;20052;-60
2023/05/21 03:29:31;;;;;;;31.75;19.42;;;;;;;14.74;100.00;100552.41;8369840;28;20037;-60
2023/05/21 03:33:32;;;;;;;31.83;18.35;;;;;;;14.74;100.00;100542.38;8350682;28;20033;-60
2023/05/21 03:37:34;;;;;;;33.38;18.30;;;;;;;14.75;100.00;100549.53;8365323;28;20037;-61
2023/05/21 03:41:35;;;;;;;32.03;19.02;;;;;;;14.74;100.00;100553.28;8387749;28;20054;-61
2023/05/21 03:45:48;;;;;;;35.30;19.80;;;;;;;14.71;100.00;100542.72;8369261;28;20040;-60
2023/05/21 03:50:09;;;;;;;33.92;19.38;;;;;;;14.58;100.00;100547.75;8350659;28;20450;-60
2023/05/21 03:54:10;;;;;;;32.10;20.25;;;;;;;14.48;100.00;100551.63;8373538;28;20039;-59
2023/05/21 03:58:12;;;;;;;33.72;21.13;;;;;;;14.34;100.00;100544.97;8371459;28;20345;-59
2023/05/21 04:02:13;;;;;;;39.53;21.35;;;;;;;14.45;100.00;100550.09;8365378;28;20040;-59
2023/05/21 04:06:14;;;;;;;33.85;20.42;;;;;;;14.60;100.00;100553.91;8353077;28;20052;-59
2023/05/21 04:10:15;;;;;;;32.70;20.13;;;;;;;14.54;100.00;100562.72;8353079;28;20039;-59
2023/05/21 04:14:16;;;;;;;33.92;20.52;;;;;;;14.45;100.00;100558.25;8347153;28;20029;-59
2023/05/21 04:18:16;;;;;;;33.33;19.50;;;;;;;14.47;100.00;100558.09;8352238;28;20037;-59
2023/05/21 04:22:17;;;;;;;38.08;21.30;;;;;;;14.49;100.00;100565.06;8363208;28;20041;-59
2023/05/21 04:26:18;;;;;;;38.80;20.02;;;;;;;14.53;100.00;100569.19;8367471;28;20086;-59
2023/05/21 04:30:22;;;;;;;34.08;20.17;;;;;;;14.49;100.00;100567.78;8364159;28;20036;-59
2023/05/21 04:34:24;;;;;;;35.42;19.30;;;;;;;14.59;100.00;100560.38;8357085;28;20040;-59
2023/05/21 04:38:25;;;;;;;32.92;19.52;;;;;;;14.55;100.00;100569.84;8364432;28;20032;-59
2023/05/21 04:42:26;;;;;;;29.30;18.92;;;;;;;14.55;100.00;100564.41;8373519;28;20043;-59
2023/05/21 04:46:29;;;;;;;31.52;18.60;;;;;;;14.70;100.00;100562.75;8373811;28;20036;-59
2023/05/21 04:50:30;;;;;;;30.88;18.55;;;;;;;14.82;100.00;100572.31;8377482;28;20060;-59
2023/05/21 04:54:30;;;;;;;29.42;17.42;;;;;;;14.81;100.00;100557.03;8373497;28;20047;-59
2023/05/21 04:58:33;;;;;;;32.47;17.15;;;;;;;14.89;100.00;100561.63;8364747;28;20393;-58
2023/05/21 05:02:33;;;;;;;29.05;17.80;;;;;;;14.98;100.00;100557.91;8366210;28;20033;-59
2023/05/21 05:06:34;;;;;;;31.65;19.15;;;;;;;14.91;100.00;100563.16;8356954;28;20060;-60
2023/05/21 05:10:34;;;;;;;32.17;19.27;;;;;;;14.95;100.00;100559.06;8371440;28;20475;-60
2023/05/21 05:14:35;;;;;;;32.80;18.50;;;;;;;15.02;100.00;100561.97;8362889;28;20040;-59
2023/05/21 05:18:36;;;;;;;28.67;17.35;;;;;;;15.07;100.00;100560.44;8372891;28;20067;-60
2023/05/21 05:22:36;;;;;;;26.95;16.98;;;;;;;15.20;100.00;100555.38;8356256;28;20037;-59
2023/05/21 05:26:37;;;;;;;23.58;15.68;;;;;;;15.23;100.00;100555.03;8422957;28;20036;-59
2023/05/21 05:30:37;;;;;;;26.77;16.05;;;;;;;15.30;100.00;100545.16;8391596;28;20032;-60
2023/05/21 05:34:50;;;;;;;24.98;15.50;;;;;;;15.38;100.00;100547.94;8357341;28;20067;-59
2023/05/21 05:38:51;;;;;;;24.42;15.77;;;;;;;15.52;100.00;100555.41;8355931;28;20049;-59
2023/05/21 05:42:52;;;;;;;23.90;14.70;;;;;;;15.60;100.00;100551.81;8363460;28;20376;-59
2023/05/21 05:46:52;;;;;;;20.77;14.48;;;;;;;15.73;100.00;100547.53;8398346;28;20104;-59
2023/05/21 05:50:54;;;;;;;29.08;14.52;;;;;;;15.84;98.87;100561.84;8380498;28;20036;-60
2023/05/21 05:54:54;;;;;;;22.73;15.00;;;;;;;15.93;98.11;100558.06;8369396;28;20243;-59
2023/05/21 05:58:55;;;;;;;24.83;15.05;;;;;;;16.12;96.99;100557.66;8372979;28;20041;-60
2023/05/21 06:02:55;;;;;;;23.10;14.65;;;;;;;16.16;96.60;100556.31;8356868;28;20091;-60
2023/05/21 06:06:56;;;;;;;20.52;13.85;;;;;;;16.28;96.14;100560.38;8355880;28;20033;-60
2023/05/21 06:10:57;;;;;;;23.38;14.30;;;;;;;16.50;93.97;100562.34;8372211;28;20033;-60
2023/05/21 06:14:57;;;;;;;23.40;14.60;;;;;;;16.46;93.31;100560.97;8371564;28;20522;-60
2023/05/21 06:18:58;;;;;;;21.45;14.20;;;;;;;16.52;93.41;100560.28;8372440;28;20043;-60
2023/05/21 06:22:59;;;;;;;19.77;14.02;;;;;;;16.46;93.39;100555.53;8376922;28;20507;-60
2023/05/21 06:27:00;;;;;;;19.23;14.13;;;;;;;16.59;93.52;100558.56;8377511;28;20431;-60
2023/05/21 06:31:01;;;;;;;23.23;14.60;;;;;;;16.76;91.28;100558.28;8372561;28;20041;-60
2023/05/21 06:35:04;;;;;;;21.92;13.10;;;;;;;17.04;91.48;100556.75;8359272;28;20043;-60
2023/05/21 06:39:04;;;;;;;22.63;13.10;;;;;;;17.38;89.91;100559.03;8379130;28;20067;-60
2023/05/21 06:43:05;;;;;;;22.40;13.18;;;;;;;17.79;87.31;100552.22;8391860;28;20028;-60
2023/05/21 06:47:26;;;;;;;21.23;13.48;;;;;;;17.94;86.19;100555.84;8385200;28;20043;-60
2023/05/21 06:51:27;;;;;;;25.20;13.73;;;;;;;18.17;87.75;100553.03;8392061;28;20491;-60
2023/05/21 06:55:28;;;;;;;19.85;13.55;;;;;;;18.04;84.64;100550.94;8391350;28;20055;-60
2023/05/21 06:59:47;;;;;;;25.10;15.02;;;;;;;17.92;84.89;100549.69;8379275;28;20037;-60
2023/05/21 07:03:48;;;;;;;22.58;13.68;;;;;;;18.36;86.36;100556.00;8385868;28;20081;-60
2023/05/21 07:07:48;;;;;;;20.40;14.23;;;;;;;18.32;83.81;100565.66;8381796;28;20039;-61
2023/05/21 07:11:51;;;;;;;21.15;14.77;;;;;;;18.25;84.84;100563.84;8384321;28;20032;-61
2023/05/21 07:15:52;;;;;;;21.00;14.15;;;;;;;18.51;85.68;100570.56;8389616;28;20044;-61
2023/05/21 07:19:53;;;;;;;21.42;14.02;;;;;;;18.20;84.19;100567.16;8384460;28;20633;-61
2023/05/21 07:23:55;;;;;;;23.10;14.57;;;;;;;17.94;85.85;100572.25;8371763;28;20581;-61
2023/05/21 07:27:56;;;;;;;23.05;14.73;;;;;;;18.24;84.77;100568.47;8373916;28;20047;-60
2023/05/21 07:31:59;;;;;;;21.73;14.35;;;;;;;18.49;85.07;100567.19;8378467;28;20040;-61
2023/05/21 07:35:59;;;;;;;19.02;13.57;;;;;;;18.59;83.85;100573.22;8363304;28;20102;-61
2023/05/21 07:40:00;;;;;;;18.85;13.55;;;;;;;18.68;84.76;100583.03;8366696;28;20097;-59
2023/05/21 07:44:01;;;;;;;21.02;13.77;;;;;;;18.53;83.34;100578.59;8357805;28;20142;-58
2023/05/21 07:48:02;;;;;;;22.40;13.95;;;;;;;18.63;83.36;100569.06;8355928;28;20044;-58
2023/05/21 07:52:05;;;;;;;19.00;12.80;;;;;;;18.88;83.49;100567.69;8362217;28;20033;-60
2023/05/21 07:56:06;;;;;;;17.38;12.80;;;;;;;19.67;81.95;100568.53;8354772;28;20044;-60
2023/05/21 08:00:09;;;;;;;19.65;13.20;;;;;;;20.15;81.51;100563.03;8361826;28;20037;-60
2023/05/21 08:04:18;;;;;;;18.02;12.50;;;;;;;20.53;77.87;100560.72;8366882;28;20036;-60
2023/05/21 08:08:20;;;;;;;19.23;12.82;;;;;;;20.39;79.02;100567.19;8369665;28;20036;-60
2023/05/21 08:12:22;;;;;;;21.42;13.18;;;;;;;20.63;78.10;100552.94;8360016;28;20550;-60
2023/05/21 08:16:22;;;;;;;16.63;13.10;;;;;;;20.70;77.80;100551.94;8359401;28;20478;-60
2023/05/21 08:20:23;;;;;;;22.42;12.40;;;;;;;20.82;77.03;100555.78;8354489;28;20058;-60
2023/05/21 08:24:25;;;;;;;17.13;13.20;;;;;;;20.50;76.95;100555.63;8361764;28;20041;-60
2023/05/21 08:28:27;;;;;;;19.02;12.90;;;;;;;21.07;77.33;100553.34;8351180;28;20029;-60
2023/05/21 08:32:28;;;;;;;18.13;13.38;;;;;;;20.49;76.51;100551.22;8358187;28;20448;-60
2023/05/21 08:36:31;;;;;;;18.40;14.05;;;;;;;20.38;78.20;100562.75;8352775;28;20032;-60
2023/05/21 08:40:37;;;;;;;22.42;14.18;;;;;;;20.78;75.92;100553.66;8352280;28;20491;-60
2023/05/21 08:44:43;;;;;;;18.67;13.02;;;;;;;20.76;77.25;100545.63;8375354;28;20411;-61
2023/05/21 08:48:45;;;;;;;22.40;13.63;;;;;;;20.99;75.65;100550.81;8354719;28;20033;-61
2023/05/21 08:52:46;;;;;;;17.70;13.82;;;;;;;21.21;74.89;100555.09;8344139;28;20502;-61
2023/05/21 08:56:48;;;;;;;17.75;14.60;;;;;;;21.13;74.68;100533.25;8342867;28;20399;-61
2023/05/21 09:00:50;;;;;;;20.00;14.93;;;;;;;21.28;75.45;100547.69;8368743;28;20032;-61
2023/05/21 09:04:56;;;;;;;20.15;13.77;;;;;;;21.75;77.22;100550.31;8386139;28;20175;-61
2023/05/21 09:09:03;;;;;;;21.27;13.65;;;;;;;22.39;73.97;100548.53;8386578;28;20051;-61
2023/05/21 09:13:13;;;;;;;20.63;14.40;;;;;;;23.04;72.94;100545.53;8370723;28;20120;-62
2023/05/21 09:17:14;;;;;;;23.52;13.43;;;;;;;23.09;70.30;100548.47;8368187;28;20036;-61
2023/05/21 09:21:31;;;;;;;16.98;13.52;;;;;;;22.71;70.40;100542.09;8367391;28;20544;-61
2023/05/21 09:25:37;;;;;;;20.33;14.35;;;;;;;22.67;69.98;100532.56;8368344;28;20044;-61
2023/05/21 09:29:42;;;;;;;17.88;14.75;;;;;;;23.11;70.91;100529.78;8364376;28;20043;-61
2023/05/21 09:33:46;;;;;;;22.73;14.05;;;;;;;22.83;71.85;100537.56;8353772;28;20045;-61
2023/05/21 09:37:49;;;;;;;18.38;14.43;;;;;;;23.37;71.66;100533.47;8359635;28;20057;-61
2023/05/21 09:41:50;;;;;;;20.60;15.18;;;;;;;22.96;69.36;100533.88;8370661;28;20174;-61
2023/05/21 09:45:52;;;;;;;21.40;14.35;;;;;;;23.23;69.04;100531.84;8370449;28;20040;-61
2023/05/21 09:49:57;;;;;;;22.63;13.32;;;;;;;24.34;70.42;100527.06;8369433;28;20117;-61
2023/05/21 09:53:57;;;;;;;24.73;14.80;;;;;;;24.67;65.68;100532.28;8370383;28;20037;-62
2023/05/21 09:57:58;;;;;;;19.75;14.77;;;;;;;23.95;65.82;100521.13;8377536;28;20043;-61
2023/05/21 10:01:58;;;;;;;20.35;13.90;;;;;;;24.42;66.03;100517.63;8361741;28;20042;-61
2023/05/21 10:05:59;;;;;;;21.73;14.93;;;;;;;24.18;65.77;100516.63;8361714;28;20036;-61
2023/05/21 10:10:03;;;;;;;21.80;15.05;;;;;;;24.10;66.84;100507.78;8373094;28;20072;-61
2023/05/21 10:14:06;;;;;;;19.87;13.93;;;;;;;25.10;65.95;100508.06;8381629;28;20048;-61
2023/05/21 10:18:09;;;;;;;20.67;15.20;;;;;;;24.72;63.84;100502.84;8371313;28;20389;-61
2023/05/21 10:22:10;;;;;;;21.90;15.35;;;;;;;24.85;64.56;100504.56;8377626;28;20116;-61
2023/05/21 10:26:11;;;;;;;21.48;14.93;;;;;;;24.80;66.42;100496.16;8377465;28;20040;-61
2023/05/21 10:30:13;;;;;;;20.15;13.80;;;;;;;24.71;66.41;100489.25;8376004;28;20079;-61
2023/05/21 10:34:13;;;;;;;20.55;13.77;;;;;;;26.20;63.40;100494.28;8360400;28;20056;-61
2023/05/21 10:38:17;;;;;;;18.52;14.80;;;;;;;26.50;61.26;100489.41;8366422;28;20435;-62
2023/05/21 10:42:51;;;;;;;19.08;15.70;;;;;;;26.50;60.11;100492.19;8376715;28;20087;-62
2023/05/21 10:47:09;;;;;;;21.35;15.20;;;;;;;27.04;58.93;100487.22;8393098;28;20044;-62
2023/05/21 10:51:49;;;;;;;19.70;13.93;;;;;;;27.52;57.16;100473.69;8377167;28;20055;-62
2023/05/21 10:56:18;;;;;;;21.48;14.82;;;;;;;27.49;58.15;100485.31;8376784;28;20044;-62
2023/05/21 11:00:20;;;;;;;21.10;15.40;;;;;;;27.38;57.57;100472.34;8368337;28;20036;-61
2023/05/21 11:04:22;;;;;;;19.48;15.30;;;;;;;26.51;59.26;100463.38;8359594;28;20033;-63
2023/05/21 11:08:25;;;;;;;21.77;15.57;;;;;;;25.69;62.55;100472.00;8365651;28;20041;-62
2023/05/21 11:12:26;;;;;;;20.85;14.35;;;;;;;26.70;62.59;100458.53;8376053;28;20043;-61
2023/05/21 11:16:28;;;;;;;19.55;14.60;;;;;;;27.12;59.39;100445.19;8375605;28;20457;-62
2023/05/21 11:20:33;;;;;;;20.98;15.43;;;;;;;27.53;58.03;100447.63;8375914;28;20063;-61
2023/05/21 11:24:37;;;;;;;19.58;14.52;;;;;;;28.35;57.34;100447.50;8375814;28;20094;-62
2023/05/21 11:28:37;;;;;;;19.73;15.80;;;;;;;29.04;55.81;100433.84;8413918;28;20033;-62
2023/05/21 11:32:39;;;;;;;20.65;15.38;;;;;;;27.92;57.10;100435.47;8359003;28;20116;-62
2023/05/21 11:36:42;;;;;;;21.60;15.05;;;;;;;28.30;58.20;100441.03;8359196;28;20045;-62
2023/05/21 11:40:53;;;;;;;18.67;15.27;;;;;;;29.47;55.25;100434.56;8375577;28;20032;-62
2023/05/21 11:44:58;;;;;;;18.48;14.75;;;;;;;28.95;56.31;100441.00;8374814;28;20047;-62
2023/05/21 11:49:00;;;;;;;19.25;14.23;;;;;;;29.24;55.24;100434.91;8375194;28;20041;-62
2023/05/21 11:53:01;;;;;;;21.70;16.08;;;;;;;28.22;56.81;100435.91;8373937;28;20040;-62
2023/05/21 11:57:06;;;;;;;22.17;16.20;;;;;;;27.78;57.36;100418.28;8375011;28;20037;-62
2023/05/21 12:01:06;;;;;;;28.45;16.58;;;;;;;27.04;59.71;100428.94;8361602;28;20503;-62
2023/05/21 12:05:07;;;;;;;22.27;16.65;;;;;;;26.02;61.68;100427.94;8357780;28;20453;-62
2023/05/21 12:09:09;;;;;;;24.88;17.98;;;;;;;25.78;64.90;100428.16;8367026;28;20041;-61
2023/05/21 12:13:10;;;;;;;27.23;16.80;;;;;;;25.36;65.03;100426.53;8373939;28;20446;-60
2023/05/21 12:17:12;;;;;;;24.83;17.88;;;;;;;24.81;65.88;100428.66;8373540;28;20138;-61
2023/05/21 12:21:12;;;;;;;26.30;18.20;;;;;;;24.59;67.04;100413.66;8373697;28;20039;-61
2023/05/21 12:25:13;;;;;;;23.60;17.77;;;;;;;24.49;67.74;100418.91;8373890;28;20041;-61
2023/05/21 12:29:13;;;;;;;22.63;17.52;;;;;;;24.69;65.77;100423.09;8377040;28;20056;-61
2023/05/21 12:33:16;;;;;;;24.48;17.00;;;;;;;24.62;66.96;100418.72;8355276;28;20143;-61
2023/05/21 12:37:22;;;;;;;29.60;18.83;;;;;;;24.64;68.05;100411.03;8359304;28;20511;-60
2023/05/21 12:41:22;;;;;;;24.38;16.77;;;;;;;25.26;67.93;100415.19;8372394;28;20087;-61
2023/05/21 12:45:23;;;;;;;23.00;16.95;;;;;;;25.22;67.69;100414.00;8373302;28;20040;-60
2023/05/21 12:49:43;;;;;;;23.27;16.77;;;;;;;25.15;65.69;100413.28;8373354;28;20040;-60
2023/05/21 12:53:44;;;;;;;21.27;16.25;;;;;;;25.08;67.36;100410.59;8384114;28;20040;-60
2023/05/21 12:57:45;;;;;;;21.98;15.02;;;;;;;25.17;68.04;100395.34;8373458;28;20055;-60
2023/05/21 13:01:47;;;;;;;22.23;17.23;;;;;;;25.22;66.73;100398.22;8363914;28;20039;-60
2023/05/21 13:05:47;;;;;;;22.67;16.27;;;;;;;25.30;65.56;100408.94;8356518;28;20163;-61
2023/05/21 13:09:48;;;;;;;26.10;17.53;;;;;;;24.84;65.87;100400.53;8368624;28;20494;-61
2023/05/21 13:13:49;;;;;;;21.60;17.30;;;;;;;24.96;66.29;100404.19;8371978;28;20379;-61
2023/05/21 13:17:49;;;;;;;22.38;16.67;;;;;;;25.17;67.88;100395.34;8372915;28;20040;-61
2023/05/21 13:21:50;;;;;;;25.40;16.67;;;;;;;25.30;65.71;100399.78;8372438;28;20036;-61
2023/05/21 13:25:50;;;;;;;23.52;16.20;;;;;;;25.11;66.79;100385.22;8369151;28;20057;-60
2023/05/21 13:29:51;;;;;;;22.70;16.07;;;;;;;25.41;66.23;100377.72;8365861;28;20418;-61
2023/05/21 13:33:51;;;;;;;23.30;16.55;;;;;;;25.34;66.21;100379.72;8355374;28;20306;-61
2023/05/21 13:37:51;;;;;;;24.02;16.88;;;;;;;25.36;67.01;100377.56;8359751;28;20494;-61
2023/05/21 13:41:52;;;;;;;26.00;17.38;;;;;;;25.13;66.69;100376.69;8374064;28;20463;-60
2023/05/21 13:45:52;;;;;;;22.75;16.55;;;;;;;25.10;67.19;100372.47;8371121;28;20053;-60
2023/05/21 13:49:53;;;;;;;20.02;15.63;;;;;;;25.36;67.17;100377.56;8368643;28;20124;-61
2023/05/21 13:53:53;;;;;;;23.13;16.83;;;;;;;25.77;66.38;100379.38;8368606;28;20048;-61
2023/05/21 13:57:54;;;;;;;23.88;17.08;;;;;;;26.07;66.45;100369.00;8370985;28;20040;-61
2023/05/21 14:01:54;;;;;;;21.98;17.55;;;;;;;25.73;66.29;100362.38;8354309;28;20045;-60
2023/05/21 14:05:55;;;;;;;23.25;16.73;;;;;;;25.86;67.43;100375.16;8354737;28;20040;-61
2023/05/21 14:09:56;;;;;;;21.75;16.35;;;;;;;25.60;66.62;100370.09;8367552;28;20408;-61
2023/05/21 14:13:57;;;;;;;22.77;17.52;;;;;;;25.49;66.69;100359.91;8370928;28;20048;-61
2023/05/21 14:17:57;;;;;;;23.85;16.48;;;;;;;25.76;67.54;100361.91;8370018;28;20037;-60
2023/05/21 14:21:58;;;;;;;26.05;17.88;;;;;;;25.97;66.55;100363.19;8371334;28;20037;-61
2023/05/21 14:25:59;;;;;;;22.90;17.00;;;;;;;25.69;65.62;100358.44;8368496;28;20043;-61
2023/05/21 14:30:00;;;;;;;27.38;17.02;;;;;;;25.67;66.03;100357.00;8396327;28;20041;-60
2023/05/21 14:34:02;;;;;;;25.42;17.25;;;;;;;25.75;66.27;100363.00;8353862;28;20164;-60
2023/05/21 14:38:02;;;;;;;22.48;16.60;;;;;;;25.71;66.54;100336.84;8359102;28;20037;-60
2023/05/21 14:42:03;;;;;;;21.48;15.55;;;;;;;25.85;66.76;100346.59;8377402;28;20041;-60
2023/05/21 14:46:04;;;;;;;17.88;15.57;;;;;;;25.94;67.08;100347.03;8375416;28;20060;-60
2023/05/21 14:50:05;;;;;;;21.08;16.48;;;;;;;26.03;65.20;100346.47;8382296;28;20037;-61
2023/05/21 14:54:05;;;;;;;20.15;15.50;;;;;;;26.06;66.12;100348.75;8380201;28;20120;-60
2023/05/21 14:58:06;;;;;;;21.92;15.45;;;;;;;26.11;64.74;100343.31;8376800;28;20491;-61
2023/05/21 15:02:07;;;;;;;17.33;13.98;;;;;;;26.19;64.12;100340.16;8367924;28;20047;-60
2023/05/21 15:06:07;;;;;;;18.58;13.95;;;;;;;25.95;63.83;100335.72;8360029;28;20037;-60
2023/05/21 15:10:08;;;;;;;18.05;13.38;;;;;;;26.06;63.27;100345.97;8372629;28;20041;-60
2023/05/21 15:14:09;;;;;;;20.58;14.48;;;;;;;25.99;63.65;100334.19;8376340;28;20063;-60
2023/05/21 15:18:10;;;;;;;20.77;13.63;;;;;;;25.94;63.45;100331.28;8376124;28;20510;-60
2023/05/21 15:22:10;;;;;;;19.45;14.73;;;;;;;26.08;63.84;100338.28;8375719;28;20491;-60
2023/05/21 15:26:11;;;;;;;20.25;14.18;;;;;;;25.98;63.12;100340.81;8376514;28;20415;-60
2023/05/21 15:30:11;;;;;;;17.10;13.07;;;;;;;25.88;64.18;100332.25;8374424;28;20044;-59
2023/05/21 15:34:12;;;;;;;16.73;13.80;;;;;;;25.86;64.84;100333.59;8358745;28;20068;-58
2023/05/21 15:38:12;;;;;;;18.52;14.70;;;;;;;25.79;64.07;100332.88;8364607;28;20029;-58
2023/05/21 15:42:13;;;;;;;18.48;13.85;;;;;;;25.89;64.73;100328.38;8374968;28;20037;-58
2023/05/21 15:46:14;;;;;;;19.23;13.55;;;;;;;25.98;64.13;100326.94;8375472;28;20040;-58
2023/05/21 15:50:15;;;;;;;18.60;13.18;;;;;;;26.02;63.71;100325.41;8375181;28;20049;-58
2023/05/21 15:54:15;;;;;;;20.25;14.25;;;;;;;26.17;64.35;100328.44;8373596;28;20558;-59
2023/05/21 15:58:16;;;;;;;19.48;13.20;;;;;;;26.11;63.84;100331.38;8375297;28;20111;-60
2023/05/21 16:02:16;;;;;;;18.63;13.45;;;;;;;25.94;63.83;100328.50;8364400;28;20045;-60
2023/05/21 16:06:17;;;;;;;19.25;13.43;;;;;;;26.00;63.78;100324.78;8358306;28;20040;-62
2023/05/21 16:10:17;;;;;;;16.58;12.90;;;;;;;25.92;63.06;100327.06;8372205;28;20124;-62
2023/05/21 16:14:18;;;;;;;14.05;11.38;;;;;;;26.20;64.52;100329.91;8374242;28;20395;-62
2023/05/21 16:18:18;;;;;;;15.27;12.20;;;;;;;26.07;64.28;100336.56;8374295;28;20048;-62
2023/05/21 16:22:19;;;;;;;18.15;14.43;;;;;;;25.93;63.18;100318.53;8371657;28;20037;-63
2023/05/21 16:26:20;;;;;;;17.77;13.23;;;;;;;25.96;64.53;100329.13;8374165;28;20035;-62
2023/05/21 16:30:20;;;;;;;21.17;14.65;;;;;;;25.90;64.63;100319.00;8361308;28;20040;-62
2023/05/21 16:34:21;;;;;;;19.65;13.55;;;;;;;25.88;64.88;100321.16;8359455;28;20849;-62
2023/05/21 16:38:21;;;;;;;14.43;11.95;;;;;;;25.90;65.03;100324.56;8354366;28;21090;-62
2023/05/21 16:42:22;;;;;;;16.67;13.70;;;;;;;25.66;64.95;100317.38;8352486;28;20044;-62
2023/05/21 16:46:23;;;;;;;18.48;14.27;;;;;;;25.59;64.86;100327.75;8338967;28;20034;-62
2023/05/21 16:50:23;;;;;;;16.15;13.02;;;;;;;25.44;65.27;100324.63;8334544;28;22331;-63
2023/05/21 16:54:25;;;;;;;21.42;15.15;;;;;;;25.33;67.36;100319.06;8344684;28;20052;-62
2023/05/21 16:58:26;;;;;;;17.58;14.88;;;;;;;25.22;67.07;100326.25;8326430;28;20063;-62
2023/05/21 17:02:26;;;;;;;23.73;15.88;;;;;;;25.29;66.87;100329.75;8342548;28;20040;-62
2023/05/21 17:06:26;;;;;;;20.00;15.52;;;;;;;25.25;67.95;100331.31;8340354;28;20041;-62
2023/05/21 17:10:28;;;;;;;22.92;16.08;;;;;;;25.11;69.08;100329.88;8347879;28;20124;-62
2023/05/21 17:14:29;;;;;;;23.10;16.98;;;;;;;25.13;69.01;100332.41;8352539;28;20100;-62
2023/05/21 17:18:30;;;;;;;22.70;15.88;;;;;;;25.09;69.03;100337.56;8329908;28;20407;-62
2023/05/21 17:22:30;;;;;;;19.85;15.50;;;;;;;24.98;68.76;100349.47;8339794;28;20037;-62
2023/05/21 17:26:31;;;;;;;21.17;16.75;;;;;;;24.95;69.92;100352.72;8337303;28;20629;-62
2023/05/21 17:30:32;;;;;;;23.13;17.20;;;;;;;24.67;74.49;100355.28;8358304;28;20360;-62
2023/05/21 17:34:32;;;;;;;24.75;18.35;;;;;;;24.03;79.01;100353.16;8365651;28;20047;-62
2023/05/21 17:38:33;;;;;;;24.38;18.77;;;;;;;23.43;82.87;100355.94;8359459;28;20044;-62
2023/05/21 17:42:33;;;;;;;28.13;19.27;;;;;;;23.14;84.97;100341.75;8375477;28;20483;-62
2023/05/21 17:46:34;;;;;;;28.60;20.40;;;;;;;22.97;86.77;100362.69;8365320;28;20036;-61
2023/05/21 17:50:34;;;;;;;25.33;20.05;;;;;;;22.92;88.51;100358.91;8367026;28;20048;-61
2023/05/21 17:54:35;;;;;;;26.52;19.67;;;;;;;22.77;89.36;100358.41;8361731;28;20048;-61
2023/05/21 17:58:36;;;;;;;26.38;19.73;;;;;;;22.82;88.65;100362.19;8366756;28;20407;-62
2023/05/21 18:02:36;;;;;;;26.70;19.33;;;;;;;22.89;88.14;100353.84;8356663;28;20269;-62
2023/05/21 18:06:38;;;;;;;26.70;19.25;;;;;;;23.07;86.68;100360.28;8356871;28;20036;-62
2023/05/21 18:10:39;;;;;;;23.65;18.08;;;;;;;23.26;83.84;100350.16;8372508;28;20068;-62
2023/05/21 18:14:39;;;;;;;27.65;17.92;;;;;;;23.45;82.68;100348.28;8364562;28;20043;-62
2023/05/21 18:18:41;;;;;;;29.27;17.80;;;;;;;23.49;81.75;100338.47;8369066;28;20069;-63
2023/05/21 18:22:42;;;;;;;25.20;18.38;;;;;;;23.49;81.02;100344.00;8375145;28;20029;-62